Time;durP1;ratioP1;P1;durP2;ratioP2;P2;SDS_P1;SDS_P2;PMS_P1;PMS_P2;Temp;Humidity;BMP_temperature;BMP_pressure;BME280_temperature;BME280_humidity;BME280_pressure;Samples;Min_cycle;Max_cycle;Signal;HPM_P1;HPM_P2
2022/01/05 00:02:24;;;;;;;14.70;8.23;;;;;;;;;;4939146;29;20106;-86
2022/01/05 00:04:50;;;;;;;14.10;6.72;;;;;;;;;;4921145;29;20016;-83
2022/01/05 00:07:15;;;;;;;17.33;6.78;;;;;;;;;;4938404;29;20345;-83
2022/01/05 00:09:40;;;;;;;12.73;6.57;;;;;;;;;;4921256;29;20034;-85
2022/01/05 00:12:06;;;;;;;13.35;6.88;;;;;;;;;;4938106;29;20020;-87
2022/01/05 00:14:31;;;;;;;16.45;7.25;;;;;;;;;;4937897;29;20472;-90
2022/01/05 00:16:56;;;;;;;16.67;7.82;;;;;;;;;;4920913;29;20030;-87
2022/01/05 00:19:22;;;;;;;18.58;8.25;;;;;;;;;;4938298;29;20027;-87
2022/01/05 00:21:48;;;;;;;16.48;7.35;;;;;;;;;;4920913;29;20483;-86
2022/01/05 00:24:13;;;;;;;13.95;6.10;;;;;;;;;;4921077;29;20059;-87
2022/01/05 00:26:38;;;;;;;14.57;6.55;;;;;;;;;;4937832;29;20165;-87
2022/01/05 00:29:04;;;;;;;10.35;5.35;;;;;;;;;;4938657;29;20479;-84
2022/01/05 00:31:29;;;;;;;14.70;4.97;;;;;;;;;;4921644;29;20395;-84
2022/01/05 00:33:54;;;;;;;10.48;5.30;;;;;;;;;;4921218;29;20625;-84
2022/01/05 00:36:19;;;;;;;10.43;4.95;;;;;;;;;;4921956;29;20016;-85
2022/01/05 00:38:45;;;;;;;15.57;5.38;;;;;;;;;;4939568;29;20023;-85
2022/01/05 00:41:10;;;;;;;13.35;5.45;;;;;;;;;;4923194;29;20057;-80
2022/01/05 00:43:36;;;;;;;8.88;4.60;;;;;;;;;;4939775;29;20024;-85
2022/01/05 00:46:01;;;;;;;10.52;4.13;;;;;;;;;;4923595;29;20535;-80
2022/01/05 00:48:29;;;;;;;13.52;4.25;;;;;;;;;;4940836;29;20509;-81
2022/01/05 00:50:55;;;;;;;7.68;3.97;;;;;;;;;;4942260;29;20024;-82
2022/01/05 00:53:20;;;;;;;8.13;3.20;;;;;;;;;;4926124;29;20055;-80
2022/01/05 00:55:45;;;;;;;9.00;3.78;;;;;;;;;;4928129;29;20038;-80
2022/01/05 00:58:10;;;;;;;10.85;4.70;;;;;;;;;;4928250;29;20027;-83
2022/01/05 01:00:36;;;;;;;9.88;4.18;;;;;;;;;;4944850;29;20043;-83
2022/01/05 01:03:01;;;;;;;7.07;3.60;;;;;;;;;;4946664;29;20459;-79
2022/01/05 01:05:27;;;;;;;8.10;3.90;;;;;;;;;;4947529;29;20513;-80
2022/01/05 01:07:52;;;;;;;7.97;3.60;;;;;;;;;;4945979;29;20596;-81
2022/01/05 01:10:18;;;;;;;6.50;3.58;;;;;;;;;;4947592;29;20363;-82
2022/01/05 01:12:43;;;;;;;7.78;3.28;;;;;;;;;;4930726;29;20020;-80
2022/01/05 01:15:10;;;;;;;7.13;3.42;;;;;;;;;;4950731;29;20020;-81
2022/01/05 01:17:35;;;;;;;8.63;3.65;;;;;;;;;;4926373;29;20027;-80
2022/01/05 01:20:00;;;;;;;8.70;3.28;;;;;;;;;;4923486;29;20035;-79
2022/01/05 01:22:28;;;;;;;7.38;3.13;;;;;;;;;;4921808;29;20030;-80
2022/01/05 01:24:54;;;;;;;10.43;3.47;;;;;;;;;;4921626;29;20091;-80
2022/01/05 01:27:19;;;;;;;10.73;3.72;;;;;;;;;;4923036;29;20510;-80
2022/01/05 01:29:44;;;;;;;7.35;3.50;;;;;;;;;;4927683;29;20024;-80
2022/01/05 01:32:09;;;;;;;7.97;3.67;;;;;;;;;;4941597;29;20026;-81
2022/01/05 01:34:34;;;;;;;7.07;3.38;;;;;;;;;;4941166;29;20015;-81
2022/01/05 01:37:00;;;;;;;8.77;3.63;;;;;;;;;;4928883;29;20040;-82
2022/01/05 01:39:25;;;;;;;8.00;3.88;;;;;;;;;;4931576;29;20028;-82
2022/01/05 01:41:50;;;;;;;12.30;4.15;;;;;;;;;;4946162;29;20031;-83
2022/01/05 01:44:16;;;;;;;13.95;5.22;;;;;;;;;;4925826;29;20030;-87
2022/01/05 01:46:41;;;;;;;6.55;3.90;;;;;;;;;;4924997;29;20109;-84
2022/01/05 01:49:07;;;;;;;9.60;4.43;;;;;;;;;;4941539;29;20019;-86
2022/01/05 01:51:32;;;;;;;6.53;3.35;;;;;;;;;;4938907;29;20012;-82
2022/01/05 01:53:58;;;;;;;7.40;3.55;;;;;;;;;;4923721;29;20022;-79
2022/01/05 01:56:23;;;;;;;8.32;3.30;;;;;;;;;;4942643;29;20530;-82
2022/01/05 01:58:49;;;;;;;8.55;3.70;;;;;;;;;;4922574;29;20027;-82
2022/01/05 02:01:15;;;;;;;6.63;3.10;;;;;;;;;;4940004;29;20475;-82
2022/01/05 02:03:40;;;;;;;7.22;3.33;;;;;;;;;;4938992;29;20024;-81
2022/01/05 02:06:06;;;;;;;8.52;3.92;;;;;;;;;;4936467;29;20155;-85
2022/01/05 02:08:31;;;;;;;8.13;3.60;;;;;;;;;;4936080;29;20031;-87
2022/01/05 02:10:56;;;;;;;8.52;3.63;;;;;;;;;;4939048;29;20376;-81
2022/01/05 02:13:22;;;;;;;6.25;3.28;;;;;;;;;;4938928;29;20047;-83
2022/01/05 02:15:47;;;;;;;8.07;3.22;;;;;;;;;;4936569;29;20027;-82
2022/01/05 02:20:47;;;;;;;6.40;3.70;;;;;;;;;;4945045;29;20028;-82
2022/01/05 02:23:12;;;;;;;6.60;3.25;;;;;;;;;;4931609;29;20020;-81
2022/01/05 02:25:38;;;;;;;10.00;3.58;;;;;;;;;;4936268;29;20031;-81
2022/01/05 02:28:04;;;;;;;5.88;2.80;;;;;;;;;;5075972;23;20055;-83
2022/01/05 02:30:34;;;;;;;8.30;3.90;;;;;;;;;;4995226;23;20129;-84
2022/01/05 02:33:03;;;;;;;;;;;;;;;;;;5000176;28;20123;-83
2022/01/05 02:59:00;;;;;;;9.43;2.85;;;;;;;;;;6025187;23;20913;-83
2022/01/05 03:01:26;;;;;;;11.88;2.35;;;;;;;;;;5557097;23;20051;-83
2022/01/05 03:06:27;;;;;;;11.95;2.20;;;;;;;;;;5549206;23;20043;-83
2022/01/05 03:08:57;;;;;;;7.43;1.55;;;;;;;;;;4981633;28;20030;-83
2022/01/05 03:32:08;;;;;;;13.00;2.60;;;;;;;;;;6190799;22;20938;31
2022/01/05 03:34:37;;;;;;;5.32;1.50;;;;;;;;;;6220537;23;20001;-83
2022/01/05 03:42:14;;;;;;;7.47;1.63;;;;;;;;;;6203483;22;20037;-84
2022/01/05 03:49:51;;;;;;;9.82;2.20;;;;;;;;;;6247489;22;20012;-82
2022/01/05 03:52:18;;;;;;;6.15;2.17;;;;;;;;;;6247117;23;20040;-83
2022/01/05 03:54:48;;;;;;;9.60;3.03;;;;;;;;;;6245262;23;19995;-83
2022/01/05 03:57:15;;;;;;;7.88;2.67;;;;;;;;;;6249032;23;19987;-83
2022/01/05 03:59:45;;;;;;;15.57;2.85;;;;;;;;;;6235112;22;21011;-82
2022/01/05 04:04:47;;;;;;;14.43;3.90;;;;;;;;;;6276346;22;20022;-83
2022/01/05 04:07:17;;;;;;;7.68;3.00;;;;;;;;;;6282090;22;20010;-83
2022/01/05 04:09:45;;;;;;;9.93;3.70;;;;;;;;;;6256224;23;20000;-84
2022/01/05 04:17:21;;;;;;;9.23;3.85;;;;;;;;;;6222090;23;20004;-83
2022/01/05 04:24:58;;;;;;;12.98;3.97;;;;;;;;;;6241813;22;19919;-83
2022/01/05 04:27:24;;;;;;;8.85;3.92;;;;;;;;;;6249984;22;19989;-83
2022/01/05 04:29:49;;;;;;;11.18;4.30;;;;;;;;;;6234157;22;20008;-83
2022/01/05 04:32:21;;;;;;;10.82;3.45;;;;;;;;;;6274000;23;20000;-84
2022/01/05 04:34:49;;;;;;;8.20;4.10;;;;;;;;;;6275199;22;20005;-83
2022/01/05 04:37:15;;;;;;;15.20;4.22;;;;;;;;;;6248956;23;19999;-82
2022/01/05 04:39:45;;;;;;;8.80;3.95;;;;;;;;;;6275293;22;20004;-83
2022/01/05 04:42:10;;;;;;;9.98;4.35;;;;;;;;;;6257544;22;20395;-83
2022/01/05 04:44:43;;;;;;;11.30;4.53;;;;;;;;;;6219799;23;19984;-82
2022/01/05 04:47:10;;;;;;;12.48;4.25;;;;;;;;;;6219241;23;19984;-82
2022/01/05 04:49:38;;;;;;;8.45;3.92;;;;;;;;;;6245352;23;19996;-83
2022/01/05 04:52:05;;;;;;;14.73;3.70;;;;;;;;;;6244933;23;19988;-82
2022/01/05 04:54:32;;;;;;;10.02;3.70;;;;;;;;;;6245051;23;19988;-83
2022/01/05 04:57:02;;;;;;;8.63;3.80;;;;;;;;;;6219100;23;20013;-83
2022/01/05 05:04:31;;;;;;;7.70;3.23;;;;;;;;;;6185177;23;20058;-83
2022/01/05 05:06:58;;;;;;;6.75;2.63;;;;;;;;;;6157338;23;20251;-82
2022/01/05 05:09:24;;;;;;;8.50;2.80;;;;;;;;;;6216858;23;19995;-83
2022/01/05 05:11:52;;;;;;;8.32;2.67;;;;;;;;;;6189453;23;20009;-83
2022/01/05 05:14:22;;;;;;;10.57;3.10;;;;;;;;;;6113967;23;20008;-82
2022/01/05 05:16:50;;;;;;;6.95;2.25;;;;;;;;;;6184554;23;19985;-83
2022/01/05 05:19:16;;;;;;;8.70;2.40;;;;;;;;;;6170828;23;20509;-83
2022/01/05 05:21:41;;;;;;;5.65;2.50;;;;;;;;;;6159375;23;20005;-83
2022/01/05 05:24:13;;;;;;;6.82;2.17;;;;;;;;;;6183518;23;20006;-82
2022/01/05 05:26:41;;;;;;;7.75;2.05;;;;;;;;;;6158753;23;19985;-83
2022/01/05 05:29:10;;;;;;;6.20;2.92;;;;;;;;;;6183935;23;20053;-82
2022/01/05 05:31:36;;;;;;;;;;;;;;;;;;6159622;23;19989;-82
2022/01/05 05:34:08;;;;;;;6.15;2.28;;;;;;;;;;6184322;23;19940;-83
2022/01/05 05:39:11;;;;;;;10.88;3.15;;;;;;;;;;6194517;23;20011;-84
2022/01/05 05:41:37;;;;;;;10.57;3.20;;;;;;;;;;6224806;23;20023;-82
2022/01/05 05:44:03;;;;;;;7.25;2.85;;;;;;;;;;6239697;23;20019;-83
2022/01/05 05:46:33;;;;;;;8.48;3.95;;;;;;;;;;6228606;23;20017;-82
2022/01/05 05:49:00;;;;;;;10.57;3.33;;;;;;;;;;6244617;23;20081;-84
2022/01/05 06:06:56;;;;;;;9.93;3.42;;;;;;;;;;6207003;23;19997;-83
2022/01/05 06:09:22;;;;;;;8.68;3.03;;;;;;;;;;6243449;23;20015;-83
2022/01/05 06:22:10;;;;;;;6.20;2.70;;;;;;;;;;6204167;23;19915;-83
2022/01/05 06:24:39;;;;;;;7.80;2.78;;;;;;;;;;6159927;23;20008;-83
2022/01/05 06:27:04;;;;;;;;;;;;;;;;;;6218228;23;20005;-82
2022/01/05 06:29:31;;;;;;;10.85;2.45;;;;;;;;;;6243901;23;19920;-82
2022/01/05 06:31:56;;;;;;;6.15;2.70;;;;;;;;;;6244122;23;19991;-83
2022/01/05 06:34:25;;;;;;;7.28;2.88;;;;;;;;;;6217549;23;19996;-82
2022/01/05 06:36:53;;;;;;;7.65;2.58;;;;;;;;;;6230132;23;20023;-82
2022/01/05 06:39:19;;;;;;;9.40;2.63;;;;;;;;;;6243971;23;19993;-83
2022/01/05 06:41:49;;;;;;;14.15;2.95;;;;;;;;;;6194359;23;20027;-83
2022/01/05 06:44:16;;;;;;;10.57;2.97;;;;;;;;;;6244047;23;19992;-83
2022/01/05 06:54:25;;;;;;;8.52;2.25;;;;;;;;;;6183755;23;20008;-84
2022/01/05 06:56:55;;;;;;;8.20;2.38;;;;;;;;;;6183824;23;20012;-84
2022/01/05 06:59:35;;;;;;;7.55;2.25;;;;;;;;;;6183336;23;20011;-83
2022/01/05 07:02:04;;;;;;;8.15;2.05;;;;;;;;;;6156091;23;20001;-81
2022/01/05 07:04:36;;;;;;;6.25;2.05;;;;;;;;;;6151047;23;20013;-82
2022/01/05 07:07:08;;;;;;;12.15;2.45;;;;;;;;;;6187697;23;20020;-83
2022/01/05 07:09:35;;;;;;;8.48;2.28;;;;;;;;;;6163511;23;20026;-83
2022/01/05 07:14:40;;;;;;;8.88;2.17;;;;;;;;;;6165742;23;20614;-83
2022/01/05 07:17:10;;;;;;;15.77;2.50;;;;;;;;;;6187883;23;20005;-82
2022/01/05 07:24:47;;;;;;;9.40;3.85;;;;;;;;;;6197159;23;20005;-83
2022/01/05 07:32:28;;;;;;;11.52;4.47;;;;;;;;;;6189262;23;20013;-82
2022/01/05 07:34:55;;;;;;;11.00;4.95;;;;;;;;;;6187568;23;20052;-83
2022/01/05 07:37:22;;;;;;;11.35;4.40;;;;;;;;;;6146795;23;20009;-83
2022/01/05 07:39:47;;;;;;;8.57;4.25;;;;;;;;;;6152782;23;20028;-82
2022/01/05 07:42:13;;;;;;;9.48;3.70;;;;;;;;;;6128576;23;19986;-83
2022/01/05 07:44:39;;;;;;;8.13;3.63;;;;;;;;;;6127011;23;19982;-83
2022/01/05 07:47:05;;;;;;;7.22;3.15;;;;;;;;;;6128594;23;20014;-83
2022/01/05 07:49:32;;;;;;;11.02;3.90;;;;;;;;;;6153491;23;20018;-84
2022/01/05 07:51:58;;;;;;;11.50;3.50;;;;;;;;;;6128583;23;19990;-83
2022/01/05 07:54:24;;;;;;;9.80;3.47;;;;;;;;;;6119369;23;20009;-81
2022/01/05 07:56:50;;;;;;;7.00;2.63;;;;;;;;;;6135853;23;20305;-81
2022/01/05 07:59:16;;;;;;;9.15;2.33;;;;;;;;;;6123080;23;20006;-83
2022/01/05 08:01:41;;;;;;;6.65;1.65;;;;;;;;;;6128348;23;20022;-82
2022/01/05 08:04:07;;;;;;;4.82;1.65;;;;;;;;;;6153944;23;19989;-83
2022/01/05 08:06:36;;;;;;;7.68;1.63;;;;;;;;;;6153208;23;20002;-82
2022/01/05 08:09:03;;;;;;;5.72;1.67;;;;;;;;;;6128110;23;20053;-83
2022/01/05 08:11:29;;;;;;;4.13;2.15;;;;;;;;;;6153524;23;19978;-82
2022/01/05 08:13:55;;;;;;;4.82;1.58;;;;;;;;;;6119059;23;20371;-83
2022/01/05 08:16:21;;;;;;;3.63;1.40;;;;;;;;;;6124764;23;20045;-82
2022/01/05 08:18:49;;;;;;;9.27;1.40;;;;;;;;;;6125932;23;20018;-81
2022/01/05 08:21:16;;;;;;;4.28;1.00;;;;;;;;;;6149202;23;20378;-82
2022/01/05 08:23:42;;;;;;;4.47;1.10;;;;;;;;;;6146571;23;20037;-81
2022/01/05 08:26:10;;;;;;;5.28;1.52;;;;;;;;;;6125735;23;20046;-82
2022/01/05 08:28:36;;;;;;;5.63;1.50;;;;;;;;;;6153666;23;19982;-82
2022/01/05 08:31:03;;;;;;;9.70;1.40;;;;;;;;;;6153632;23;19990;-81
2022/01/05 08:33:28;;;;;;;3.20;1.20;;;;;;;;;;6128109;23;19989;-82
2022/01/05 08:35:55;;;;;;;8.15;1.48;;;;;;;;;;6127673;23;20041;-81
2022/01/05 08:38:21;;;;;;;4.53;1.17;;;;;;;;;;6154360;23;19993;-83
2022/01/05 08:40:50;;;;;;;4.88;1.33;;;;;;;;;;6129054;23;20006;-83
2022/01/05 08:43:16;;;;;;;7.45;1.05;;;;;;;;;;6118270;23;20462;-83
2022/01/05 08:45:44;;;;;;;4.57;1.13;;;;;;;;;;6116795;23;20069;-83
2022/01/05 08:48:10;;;;;;;5.95;1.35;;;;;;;;;;6152768;23;19992;-83
2022/01/05 08:53:15;;;;;;;9.80;1.40;;;;;;;;;;6169051;23;20005;-83
2022/01/05 09:00:52;;;;;;;7.85;1.10;;;;;;;;;;6200979;23;20004;-84
2022/01/05 09:13:42;;;;;;;6.32;1.65;;;;;;;;;;6193595;23;19997;-84
2022/01/05 09:23:53;;;;;;;7.65;1.88;;;;;;;;;;6198914;23;20042;-82
2022/01/05 09:26:19;;;;;;;8.45;1.85;;;;;;;;;;6213136;23;20052;-83
2022/01/05 09:28:49;;;;;;;7.57;1.80;;;;;;;;;;6186940;23;20061;-82
2022/01/05 09:31:15;;;;;;;9.68;1.80;;;;;;;;;;6210197;23;19981;-81
2022/01/05 09:33:40;;;;;;;9.77;2.25;;;;;;;;;;6210772;23;20000;-82
2022/01/05 09:36:32;;;;;;;8.50;2.20;;;;;;;;;;6186744;23;20021;-82
2022/01/05 09:44:08;;;;;;;4.97;1.67;;;;;;;;;;6212100;23;20018;-83
2022/01/05 09:46:52;;;;;;;8.98;1.90;;;;;;;;;;6209465;23;19997;-82
2022/01/05 09:49:24;;;;;;;7.95;1.90;;;;;;;;;;6212560;23;20001;-83
2022/01/05 09:51:51;;;;;;;3.80;1.30;;;;;;;;;;6185762;23;19989;-83
2022/01/05 09:54:16;;;;;;;10.82;1.67;;;;;;;;;;6212350;23;19985;-83
2022/01/05 09:56:43;;;;;;;10.50;2.92;;;;;;;;;;6185409;23;20021;-82
2022/01/05 09:59:09;;;;;;;8.82;2.20;;;;;;;;;;6185333;23;20001;-83
2022/01/05 10:01:36;;;;;;;6.35;1.70;;;;;;;;;;6184981;23;20011;-82
2022/01/05 10:04:02;;;;;;;11.20;1.70;;;;;;;;;;6210664;23;20004;-83
2022/01/05 10:06:27;;;;;;;7.07;1.73;;;;;;;;;;6210477;23;19993;-83
2022/01/05 10:08:53;;;;;;;4.38;1.42;;;;;;;;;;6210263;23;20004;-83
2022/01/05 10:11:22;;;;;;;7.43;1.75;;;;;;;;;;6211468;23;20015;-83
2022/01/05 10:13:52;;;;;;;12.23;2.00;;;;;;;;;;6187473;23;19993;-83
2022/01/05 10:16:17;;;;;;;10.07;1.58;;;;;;;;;;6213118;23;20009;-82
2022/01/05 10:18:44;;;;;;;11.30;2.42;;;;;;;;;;6187298;23;20028;-83
2022/01/05 10:21:12;;;;;;;6.85;1.88;;;;;;;;;;6213319;23;19997;-82
2022/01/05 10:23:41;;;;;;;9.40;2.10;;;;;;;;;;6186004;23;20068;-83
2022/01/05 10:26:21;;;;;;;5.50;1.48;;;;;;;;;;6213288;23;20004;-82
2022/01/05 10:28:47;;;;;;;5.13;1.50;;;;;;;;;;6187426;23;19989;-83
2022/01/05 10:31:14;;;;;;;4.20;1.60;;;;;;;;;;6213276;23;20020;-83
2022/01/05 10:33:40;;;;;;;5.18;1.42;;;;;;;;;;6185369;23;20445;-82
2022/01/05 10:36:06;;;;;;;4.90;1.85;;;;;;;;;;6211425;23;20005;-82
2022/01/05 10:38:32;;;;;;;8.40;1.40;;;;;;;;;;6185954;23;20052;-83
2022/01/05 10:40:58;;;;;;;6.30;1.67;;;;;;;;;;6186459;23;20020;-82
2022/01/05 10:43:23;;;;;;;7.68;1.15;;;;;;;;;;6212101;23;19985;-83
2022/01/05 10:45:53;;;;;;;4.82;2.10;;;;;;;;;;6212348;23;19999;-83
2022/01/05 10:48:21;;;;;;;4.00;1.65;;;;;;;;;;6186909;23;19996;-83
2022/01/05 10:50:48;;;;;;;6.10;1.50;;;;;;;;;;6186622;23;19993;-83
2022/01/05 10:53:19;;;;;;;8.00;1.42;;;;;;;;;;6212019;23;20001;-82
2022/01/05 10:55:45;;;;;;;5.88;1.50;;;;;;;;;;6185842;23;20005;-83
2022/01/05 10:58:12;;;;;;;8.68;1.98;;;;;;;;;;6212419;23;20013;-83
2022/01/05 11:00:44;;;;;;;5.60;1.70;;;;;;;;;;6186562;23;20048;-83
2022/01/05 11:03:35;;;;;;;8.52;2.03;;;;;;;;;;6186921;23;20024;-83
2022/01/05 11:06:17;;;;;;;4.35;1.38;;;;;;;;;;6186535;23;20016;-83
2022/01/05 11:08:45;;;;;;;7.15;1.80;;;;;;;;;;6212489;23;20009;-83
2022/01/05 11:11:30;;;;;;;6.18;1.40;;;;;;;;;;6185829;23;20012;-81
2022/01/05 11:13:57;;;;;;;4.07;1.50;;;;;;;;;;6210575;23;20001;-81
2022/01/05 11:16:29;;;;;;;6.30;2.03;;;;;;;;;;6204203;23;20008;-82
2022/01/05 11:19:13;;;;;;;8.02;1.90;;;;;;;;;;6208533;23;19977;-82
2022/01/05 11:21:38;;;;;;;6.65;1.92;;;;;;;;;;6208988;23;19997;-82
2022/01/05 11:24:05;;;;;;;8.00;1.70;;;;;;;;;;6208618;23;20054;-82
2022/01/05 11:26:36;;;;;;;5.13;1.13;;;;;;;;;;6182719;23;19997;-83
2022/01/05 11:29:03;;;;;;;4.25;1.50;;;;;;;;;;6207245;23;20056;-82
2022/01/05 11:31:30;;;;;;;5.53;2.15;;;;;;;;;;6181048;23;19993;-83
2022/01/05 11:33:55;;;;;;;8.48;2.10;;;;;;;;;;6180726;23;20584;-82
2022/01/05 11:36:21;;;;;;;3.95;1.45;;;;;;;;;;6207530;23;20001;-82
2022/01/05 11:38:46;;;;;;;4.80;1.60;;;;;;;;;;6211077;23;20041;-83
2022/01/05 11:41:12;;;;;;;6.47;2.08;;;;;;;;;;6184891;23;20001;-82
2022/01/05 11:43:39;;;;;;;6.55;1.75;;;;;;;;;;6208257;23;20004;-82
2022/01/05 11:46:17;;;;;;;8.07;2.05;;;;;;;;;;6207299;23;19989;-81
2022/01/05 11:49:01;;;;;;;2.17;1.20;;;;;;;;;;6183209;23;19997;-83
2022/01/05 11:51:42;;;;;;;7.50;1.35;;;;;;;;;;6181566;23;20004;-82
2022/01/05 11:54:27;;;;;;;3.33;1.42;;;;;;;;;;6209000;23;19992;-82
2022/01/05 11:57:12;;;;;;;10.63;1.65;;;;;;;;;;6210257;23;19993;-82
2022/01/05 11:59:39;;;;;;;6.25;1.55;;;;;;;;;;6184424;23;20041;-83
2022/01/05 12:02:04;;;;;;;6.43;1.70;;;;;;;;;;6181820;23;20082;-82
2022/01/05 12:04:30;;;;;;;8.35;1.50;;;;;;;;;;6205318;23;20021;-82
2022/01/05 12:07:03;;;;;;;7.15;1.50;;;;;;;;;;6203958;23;20013;-81
2022/01/05 12:09:30;;;;;;;6.38;1.20;;;;;;;;;;6187415;23;20005;-81
2022/01/05 12:11:56;;;;;;;6.07;1.35;;;;;;;;;;6186671;23;19997;-82
2022/01/05 12:14:22;;;;;;;5.97;1.55;;;;;;;;;;6186598;23;19996;-82
2022/01/05 12:17:02;;;;;;;7.07;1.40;;;;;;;;;;6187699;23;19997;-81
2022/01/05 12:19:33;;;;;;;9.38;1.85;;;;;;;;;;6186285;23;20020;-84
2022/01/05 12:22:00;;;;;;;9.15;2.10;;;;;;;;;;6187599;23;20001;-83
2022/01/05 12:24:43;;;;;;;6.97;1.70;;;;;;;;;;6212040;23;20016;-82
2022/01/05 12:27:18;;;;;;;8.30;1.80;;;;;;;;;;6186364;23;20001;-83
2022/01/05 12:29:44;;;;;;;4.82;1.25;;;;;;;;;;6189165;23;19997;-84
2022/01/05 12:34:58;;;;;;;6.25;1.45;;;;;;;;;;6211760;23;19939;-83
2022/01/05 12:38:04;;;;;;;4.40;1.20;;;;;;;;;;6214216;23;19977;-83
2022/01/05 12:40:30;;;;;;;6.75;1.20;;;;;;;;;;6091634;23;19984;-83
2022/01/05 12:43:34;;;;;;;5.93;1.67;;;;;;;;;;6191962;23;20027;-84
2022/01/05 12:46:11;;;;;;;4.63;1.65;;;;;;;;;;6213642;23;19981;-83
2022/01/05 12:48:36;;;;;;;6.22;1.88;;;;;;;;;;6186784;23;20001;-83
2022/01/05 12:51:11;;;;;;;3.63;1.73;;;;;;;;;;6212699;23;19989;-84
2022/01/05 12:53:36;;;;;;;5.10;2.25;;;;;;;;;;6209608;23;20043;-83
2022/01/05 12:56:02;;;;;;;5.60;1.50;;;;;;;;;;6180844;23;20005;-83
2022/01/05 12:58:32;;;;;;;4.00;1.38;;;;;;;;;;6205506;23;20033;-82
2022/01/05 13:00:58;;;;;;;5.53;1.92;;;;;;;;;;6185143;23;20025;-83
2022/01/05 13:03:31;;;;;;;4.45;1.08;;;;;;;;;;6187879;23;20048;-82
2022/01/05 13:06:11;;;;;;;5.40;1.50;;;;;;;;;;6187619;23;20069;-82
2022/01/05 13:08:37;;;;;;;5.13;1.67;;;;;;;;;;6188325;23;20020;-83
2022/01/05 13:11:03;;;;;;;4.20;1.20;;;;;;;;;;6186760;23;19996;-83
2022/01/05 13:13:29;;;;;;;4.88;1.35;;;;;;;;;;6187357;23;20008;-83
2022/01/05 13:16:05;;;;;;;5.65;1.67;;;;;;;;;;6213456;23;19989;-83
2022/01/05 13:18:31;;;;;;;9.13;1.40;;;;;;;;;;6187558;23;20008;-83
2022/01/05 13:20:57;;;;;;;1.75;0.93;;;;;;;;;;6184883;23;20053;-83
2022/01/05 13:23:26;;;;;;;6.05;1.70;;;;;;;;;;6212910;23;20069;-82
2022/01/05 13:25:53;;;;;;;8.48;1.50;;;;;;;;;;6184892;23;20020;-82
2022/01/05 13:28:20;;;;;;;5.88;1.52;;;;;;;;;;6211955;23;19981;-82
2022/01/05 13:30:48;;;;;;;7.95;1.42;;;;;;;;;;6186728;23;20077;-83
2022/01/05 13:33:17;;;;;;;6.75;1.73;;;;;;;;;;6186416;23;20064;-82
2022/01/05 13:35:47;;;;;;;7.80;1.70;;;;;;;;;;6185521;23;20004;-82
2022/01/05 13:38:17;;;;;;;5.70;1.58;;;;;;;;;;6185508;23;20001;-82
2022/01/05 13:40:44;;;;;;;3.55;1.10;;;;;;;;;;6211301;23;19997;-82
2022/01/05 13:43:14;;;;;;;9.93;2.10;;;;;;;;;;6185279;23;20012;-84
2022/01/05 13:45:40;;;;;;;2.70;1.08;;;;;;;;;;6175803;23;19997;-83
2022/01/05 13:48:13;;;;;;;6.55;1.40;;;;;;;;;;6174103;23;20004;-83
2022/01/05 13:50:40;;;;;;;5.32;1.33;;;;;;;;;;6210175;23;19989;-83
2022/01/05 13:53:16;;;;;;;4.43;1.42;;;;;;;;;;6185303;23;20052;-83
2022/01/05 13:55:44;;;;;;;1.77;0.77;;;;;;;;;;6186292;23;20013;-82
2022/01/05 13:58:29;;;;;;;5.80;1.80;;;;;;;;;;6211657;23;20049;-83
2022/01/05 14:01:06;;;;;;;6.18;1.33;;;;;;;;;;6211841;23;19985;-83
2022/01/05 14:03:33;;;;;;;8.05;1.73;;;;;;;;;;6212493;23;20012;-80
2022/01/05 14:06:01;;;;;;;5.88;1.70;;;;;;;;;;6212638;23;20005;-83
2022/01/05 14:08:50;;;;;;;6.35;1.70;;;;;;;;;;6186434;23;19989;-81
2022/01/05 14:11:16;;;;;;;7.70;1.70;;;;;;;;;;6203945;23;20041;-83
2022/01/05 14:13:50;;;;;;;8.75;2.53;;;;;;;;;;6212175;23;20033;-82
2022/01/05 14:16:27;;;;;;;3.63;1.40;;;;;;;;;;6210102;23;20009;-82
2022/01/05 14:18:57;;;;;;;5.22;1.77;;;;;;;;;;6209480;23;19977;-80
2022/01/05 14:21:27;;;;;;;3.85;1.60;;;;;;;;;;6211412;23;20007;-82
2022/01/05 14:23:52;;;;;;;8.80;1.52;;;;;;;;;;6208965;23;19993;-80
2022/01/05 14:26:23;;;;;;;5.43;1.35;;;;;;;;;;6185646;23;19989;-81
2022/01/05 14:28:49;;;;;;;8.85;1.75;;;;;;;;;;6212007;23;20001;-82
2022/01/05 14:31:18;;;;;;;2.92;0.73;;;;;;;;;;6212902;23;19981;-81
2022/01/05 14:33:56;;;;;;;6.18;1.38;;;;;;;;;;6185472;23;20009;-82
2022/01/05 14:36:30;;;;;;;5.17;1.67;;;;;;;;;;6185254;23;19985;-81
2022/01/05 14:39:00;;;;;;;7.15;2.08;;;;;;;;;;6211528;23;20009;-79
2022/01/05 14:41:44;;;;;;;13.35;2.65;;;;;;;;;;6186444;23;20007;-81
2022/01/05 14:44:12;;;;;;;6.90;1.55;;;;;;;;;;6185591;23;20057;-82
2022/01/05 14:46:38;;;;;;;5.80;1.73;;;;;;;;;;6211894;23;19996;-82
2022/01/05 14:49:05;;;;;;;6.53;1.55;;;;;;;;;;6212775;23;20005;-82
2022/01/05 14:51:31;;;;;;;4.65;1.15;;;;;;;;;;6186923;23;20004;-82
2022/01/05 14:53:59;;;;;;;4.97;1.40;;;;;;;;;;6186295;23;20020;-82
2022/01/05 14:56:29;;;;;;;8.43;1.55;;;;;;;;;;6186736;23;20028;-82
2022/01/05 14:58:57;;;;;;;2.20;0.82;;;;;;;;;;6186776;23;20011;-83
2022/01/05 15:01:23;;;;;;;9.07;1.50;;;;;;;;;;6211851;23;20000;-82
2022/01/05 15:03:49;;;;;;;2.13;0.85;;;;;;;;;;6212862;23;19997;-82
2022/01/05 15:06:15;;;;;;;4.85;1.40;;;;;;;;;;6184822;23;20000;-80
2022/01/05 15:08:40;;;;;;;8.73;1.30;;;;;;;;;;6183344;23;20001;-82
2022/01/05 15:11:05;;;;;;;3.42;1.20;;;;;;;;;;6183039;23;20024;-81
2022/01/05 15:13:32;;;;;;;3.13;1.00;;;;;;;;;;6210761;23;20016;-82
2022/01/05 15:15:58;;;;;;;5.82;1.02;;;;;;;;;;6184939;23;19996;-81
2022/01/05 15:18:23;;;;;;;3.70;1.33;;;;;;;;;;6210344;23;19997;-81
2022/01/05 15:20:51;;;;;;;4.65;1.08;;;;;;;;;;6184702;23;19989;-81
2022/01/05 15:23:16;;;;;;;4.40;1.27;;;;;;;;;;6211317;23;19997;-82
2022/01/05 15:25:41;;;;;;;3.35;1.23;;;;;;;;;;6184676;23;19985;-81
2022/01/05 15:28:10;;;;;;;3.28;0.82;;;;;;;;;;6210309;23;19989;-82
2022/01/05 15:30:35;;;;;;;4.10;1.70;;;;;;;;;;6185759;23;19993;-80
2022/01/05 15:33:01;;;;;;;3.78;1.00;;;;;;;;;;6211378;23;20017;-80
2022/01/05 15:35:26;;;;;;;2.60;1.10;;;;;;;;;;6185628;23;20099;-82
2022/01/05 15:37:51;;;;;;;2.67;1.25;;;;;;;;;;6209864;23;20001;-81
2022/01/05 15:40:17;;;;;;;4.60;1.50;;;;;;;;;;6178924;23;20012;-80
2022/01/05 15:42:42;;;;;;;2.10;0.98;;;;;;;;;;6204546;23;20001;-81
2022/01/05 15:45:08;;;;;;;5.63;1.67;;;;;;;;;;6182226;23;20016;-81
2022/01/05 15:47:33;;;;;;;6.45;1.30;;;;;;;;;;6182038;23;20420;-79
2022/01/05 15:49:58;;;;;;;4.88;1.58;;;;;;;;;;6181463;23;20468;-79
2022/01/05 15:52:24;;;;;;;4.32;1.33;;;;;;;;;;6208034;23;20020;-81
2022/01/05 15:54:55;;;;;;;3.53;0.88;;;;;;;;;;6206969;23;20001;-81
2022/01/05 15:57:36;;;;;;;5.13;1.60;;;;;;;;;;6206456;23;19990;-81
2022/01/05 16:02:46;;;;;;;3.28;0.90;;;;;;;;;;6196977;23;20028;-80
2022/01/05 16:05:11;;;;;;;1.65;1.05;;;;;;;;;;6199591;23;19997;-81
2022/01/05 16:07:43;;;;;;;8.77;1.55;;;;;;;;;;6200024;23;20047;-81
2022/01/05 16:10:08;;;;;;;2.47;1.10;;;;;;;;;;6199965;23;20074;-81
2022/01/05 16:12:34;;;;;;;2.00;0.82;;;;;;;;;;6197983;23;20397;-81
2022/01/05 16:14:59;;;;;;;3.60;1.13;;;;;;;;;;6195583;23;20008;-80
2022/01/05 16:17:25;;;;;;;4.32;1.30;;;;;;;;;;6168958;23;19993;-80
2022/01/05 16:19:50;;;;;;;4.03;1.00;;;;;;;;;;6191088;23;20517;-80
2022/01/05 16:22:15;;;;;;;3.80;1.23;;;;;;;;;;6196181;23;19989;-81
2022/01/05 16:24:41;;;;;;;6.18;1.60;;;;;;;;;;6204729;23;20012;-80
2022/01/05 16:27:06;;;;;;;12.50;1.70;;;;;;;;;;6208560;23;20001;-81
2022/01/05 16:29:32;;;;;;;3.03;1.20;;;;;;;;;;6209200;23;20052;-81
2022/01/05 16:31:57;;;;;;;4.28;1.00;;;;;;;;;;6182909;23;20409;-80
2022/01/05 16:34:23;;;;;;;5.63;1.70;;;;;;;;;;6209647;23;20005;-81
2022/01/05 16:36:48;;;;;;;5.50;1.30;;;;;;;;;;6209089;23;20004;-81
2022/01/05 16:39:14;;;;;;;2.38;1.10;;;;;;;;;;6210082;23;19997;-80
2022/01/05 16:41:43;;;;;;;3.20;1.60;;;;;;;;;;6202219;23;20040;-81
2022/01/05 16:44:08;;;;;;;4.97;1.40;;;;;;;;;;6204916;23;19993;-80
2022/01/05 16:46:37;;;;;;;2.75;1.10;;;;;;;;;;6183678;23;20011;-80
2022/01/05 16:49:04;;;;;;;4.45;1.58;;;;;;;;;;6208537;23;20044;-79
2022/01/05 16:51:30;;;;;;;4.60;1.25;;;;;;;;;;6206990;23;20063;-80
2022/01/05 16:53:55;;;;;;;3.25;1.20;;;;;;;;;;6206963;23;19977;-78
2022/01/05 16:56:30;;;;;;;5.45;1.42;;;;;;;;;;6210391;23;20009;-81
2022/01/05 17:01:39;;;;;;;4.57;1.30;;;;;;;;;;6210741;23;20047;-82
2022/01/05 17:04:04;;;;;;;3.70;1.33;;;;;;;;;;6212488;23;19985;-81
2022/01/05 17:06:30;;;;;;;3.53;1.48;;;;;;;;;;6187160;23;20000;-82
2022/01/05 17:08:58;;;;;;;4.05;1.10;;;;;;;;;;6187800;23;19997;-80
2022/01/05 17:11:26;;;;;;;7.13;1.42;;;;;;;;;;6213526;23;19989;-82
2022/01/05 17:13:57;;;;;;;8.50;1.50;;;;;;;;;;6188212;23;20005;-82
2022/01/05 17:16:23;;;;;;;4.22;1.02;;;;;;;;;;6187215;23;20020;-82
2022/01/05 17:18:48;;;;;;;4.97;1.80;;;;;;;;;;6187588;23;20012;-81
2022/01/05 17:21:14;;;;;;;5.88;2.15;;;;;;;;;;6212590;23;20001;-82
2022/01/05 17:23:43;;;;;;;7.68;1.77;;;;;;;;;;6187069;23;19989;-82
2022/01/05 17:26:09;;;;;;;3.42;1.55;;;;;;;;;;6184247;23;20009;-81
2022/01/05 17:28:35;;;;;;;4.78;1.33;;;;;;;;;;6212936;23;19993;-82
2022/01/05 17:31:01;;;;;;;3.00;1.10;;;;;;;;;;6213210;23;19989;-83
2022/01/05 17:33:27;;;;;;;3.85;1.30;;;;;;;;;;6187781;23;20021;-82